^^
Your Local Weather - Clay, NY Station Historical Data
Daily Summary for February 25, 2017 Units:  Metric    English   Both
« Previous Day
Next Day »
Daily Weekly Monthly Yearly Custom
  High: Low: Average:
Temperature: 18.9 °C 0.4 °C 10.6 °C
Dew Point: 12.6 °C -4.7 °C 6.4 °C
Humidity: 90% 62% 76%
Wind Speed: 16.1km/h 0km/h 7.6km/h
Wind Gust: 32.2km/h - -
Wind- - SW
Pressure: 1005.6 hPa 993.5 hPa -
Precipitation: 11.43 mm    
Historical Graphs
 
 
Tabular Data for February 25, 2017
Time Temperature Dew Point Pressure Wind Wind Speed Wind Gust Humidity Rainfall Rate (Hourly) solar
00:00 17.5 °C 10.6 °C 1001.6 hPa South 11.3 km/h 17.7 km/h 64% 0 mm 0 W/m2
00:05 17.4 °C 10.5 °C 1001.6 hPa South 11.3 km/h 17.7 km/h 64% 0 mm 0 W/m2
00:12 17.4 °C 10.7 °C 1001.6 hPa SSE 11.3 km/h 11.3 km/h 65% 0 mm 0 W/m2
00:18 17.3 °C 10.7 °C 1001.2 hPa SSE 9.7 km/h 14.5 km/h 65% 0 mm 0 W/m2
00:24 17.2 °C 10.6 °C 1001.2 hPa South 9.7 km/h 9.7 km/h 65% 0 mm 0 W/m2
00:30 17.2 °C 10.6 °C 1001.2 hPa South 11.3 km/h 11.3 km/h 65% 0 mm 0 W/m2
00:35 17.1 °C 10.5 °C 1001.2 hPa SSW 11.3 km/h 22.5 km/h 65% 0 mm 0 W/m2
00:42 17.1 °C 10.5 °C 1001.2 hPa SSW 12.9 km/h 12.9 km/h 65% 0 mm 0 W/m2
00:48 17.1 °C 10.4 °C 1001.2 hPa SSE 12.9 km/h 12.9 km/h 65% 0 mm 0 W/m2
00:54 17.1 °C 10.5 °C 1001.2 hPa South 12.9 km/h 20.9 km/h 65% 0 mm 0 W/m2
00:59 16.9 °C 10.3 °C 1000.9 hPa SE 11.3 km/h 17.7 km/h 65% 0 mm 0 W/m2
01:05 16.9 °C 10.6 °C 1000.9 hPa SSW 12.9 km/h 19.3 km/h 66% 0 mm 0 W/m2
01:12 16.8 °C 10.4 °C 1000.6 hPa SSW 12.9 km/h 12.9 km/h 66% 0 mm 0 W/m2
01:18 16.8 °C 10.4 °C 1000.6 hPa South 11.3 km/h 24.1 km/h 66% 0 mm 0 W/m2
01:24 16.9 °C 10.5 °C 1000.6 hPa SE 12.9 km/h 22.5 km/h 66% 0 mm 0 W/m2
01:29 16.8 °C 10.4 °C 1000.6 hPa South 12.9 km/h 12.9 km/h 66% 0 mm 0 W/m2
01:36 16.8 °C 10.4 °C 1000.6 hPa SSW 12.9 km/h 16.1 km/h 66% 0 mm 0 W/m2
01:42 16.8 °C 10.4 °C 1000.6 hPa SSE 12.9 km/h 17.7 km/h 66% 0 mm 0 W/m2
01:48 16.8 °C 10.4 °C 1000.6 hPa SSE 14.5 km/h 17.7 km/h 66% 0 mm 0 W/m2
01:54 16.7 °C 10.3 °C 1000.6 hPa SSE 12.9 km/h 17.7 km/h 66% 0 mm 0 W/m2
01:59 16.7 °C 10.3 °C 1000.6 hPa SE 11.3 km/h 16.1 km/h 66% 0 mm 0 W/m2
02:05 16.8 °C 10.4 °C 1000.2 hPa SSE 12.9 km/h 17.7 km/h 66% 0 mm 0 W/m2
02:12 16.7 °C 10.5 °C 1000.2 hPa SW 12.9 km/h 12.9 km/h 67% 0 mm 0 W/m2
02:18 16.6 °C 10.4 °C 1000.2 hPa South 11.3 km/h 17.7 km/h 67% 0 mm 0 W/m2
02:24 16.6 °C 10.4 °C 1000.2 hPa South 12.9 km/h 22.5 km/h 67% 0 mm 0 W/m2
02:30 16.6 °C 10.6 °C 1000.2 hPa SSE 11.3 km/h 11.3 km/h 68% 0 mm 0 W/m2
02:35 16.5 °C 10.6 °C 1000.2 hPa SW 11.3 km/h 12.9 km/h 68% 0 mm 0 W/m2
02:42 16.4 °C 10.5 °C 999.9 hPa SSE 11.3 km/h 16.1 km/h 68% 0 mm 0 W/m2
02:48 16.4 °C 10.4 °C 999.9 hPa SE 11.3 km/h 16.1 km/h 68% 0 mm 0 W/m2
02:53 16.4 °C 10.7 °C 999.9 hPa SSE 11.3 km/h 24.1 km/h 69% 0 mm 0 W/m2
02:59 16.4 °C 10.7 °C 999.5 hPa South 12.9 km/h 12.9 km/h 69% 0 mm 0 W/m2
03:05 16.3 °C 10.6 °C 999.5 hPa SW 12.9 km/h 16.1 km/h 69% 0 mm 0 W/m2
03:12 16.3 °C 10.6 °C 999.5 hPa South 11.3 km/h 11.3 km/h 69% 0 mm 0 W/m2
03:18 16.2 °C 10.7 °C 999.5 hPa SSE 11.3 km/h 16.1 km/h 70% 0 mm 0 W/m2
03:24 16.3 °C 10.8 °C 999.5 hPa South 12.9 km/h 20.9 km/h 70% 0 mm 0 W/m2
03:29 16.3 °C 10.8 °C 999.5 hPa South 14.5 km/h 19.3 km/h 70% 0 mm 0 W/m2
03:36 16.3 °C 10.8 °C 999.5 hPa South 14.5 km/h 19.3 km/h 70% 0 mm 0 W/m2
03:42 16.2 °C 10.7 °C 999.5 hPa SSE 12.9 km/h 12.9 km/h 70% 0 mm 0 W/m2
03:48 16.2 °C 10.7 °C 999.5 hPa SSW 12.9 km/h 16.1 km/h 70% 0 mm 0 W/m2
03:53 16.3 °C 10.8 °C 999.5 hPa South 14.5 km/h 22.5 km/h 70% 0 mm 0 W/m2
04:00 16.2 °C 10.9 °C 999.5 hPa South 12.9 km/h 12.9 km/h 71% 0 mm 0 W/m2
04:06 16.3 °C 11 °C 999.5 hPa SSW 12.9 km/h 16.1 km/h 71% 0 mm 0 W/m2
04:12 16.2 °C 10.9 °C 999.2 hPa SSE 11.3 km/h 12.9 km/h 71% 0 mm 0 W/m2
04:18 16.2 °C 10.9 °C 999.2 hPa SSE 11.3 km/h 12.9 km/h 71% 0 mm 0 W/m2
04:24 16.2 °C 11.1 °C 999.2 hPa SSE 11.3 km/h 14.5 km/h 72% 0 mm 0 W/m2
04:29 16 °C 10.9 °C 999.2 hPa SW 9.7 km/h 9.7 km/h 72% 0 mm 0 W/m2
04:36 16 °C 10.9 °C 999.2 hPa SSE 8 km/h 11.3 km/h 72% 0 mm 0 W/m2
04:42 16.2 °C 11.1 °C 999.2 hPa South 9.7 km/h 9.7 km/h 72% 0 mm 0 W/m2
04:48 16.2 °C 11.2 °C 999.2 hPa South 9.7 km/h 11.3 km/h 72% 0 mm 0 W/m2
04:53 16.2 °C 11.2 °C 998.9 hPa South 9.7 km/h 12.9 km/h 72% 0 mm 0 W/m2
05:00 16.3 °C 11.2 °C 998.9 hPa South 9.7 km/h 11.3 km/h 72% 0 mm 0 W/m2
05:06 16.3 °C 11.3 °C 998.9 hPa South 9.7 km/h 16.1 km/h 72% 0 mm 0 W/m2
05:12 16.4 °C 11.3 °C 998.9 hPa South 9.7 km/h 9.7 km/h 72% 0 mm 0 W/m2
05:18 16.4 °C 11.3 °C 998.5 hPa SSE 9.7 km/h 9.7 km/h 72% 0 mm 0 W/m2
05:24 16.3 °C 11.3 °C 998.5 hPa South 9.7 km/h 9.7 km/h 72% 0 mm 0 W/m2
05:29 16.3 °C 11.3 °C 998.5 hPa SSE 9.7 km/h 9.7 km/h 72% 0 mm 0 W/m2
05:36 16.4 °C 11.4 °C 998.5 hPa South 9.7 km/h 16.1 km/h 72% 0 mm 0 W/m2
05:42 16.4 °C 11.4 °C 998.9 hPa SW 8 km/h 9.7 km/h 72% 0 mm 0 W/m2
05:48 16.5 °C 11.4 °C 998.9 hPa SSW 8 km/h 11.3 km/h 72% 0 mm 0 W/m2
05:53 16.6 °C 11.6 °C 998.9 hPa SW 9.7 km/h 11.3 km/h 72% 0 mm 0 W/m2
06:00 16.5 °C 11.4 °C 998.9 hPa South 9.7 km/h 9.7 km/h 72% 0 mm 0 W/m2
06:06 16.4 °C 11.4 °C 998.9 hPa SSW 6.4 km/h 9.7 km/h 72% 0 mm 0 W/m2
06:12 16.5 °C 11.4 °C 998.9 hPa SW 4.8 km/h 4.8 km/h 72% 0 mm 0 W/m2
06:18 16.4 °C 11.4 °C 998.9 hPa SSW 4.8 km/h 6.4 km/h 72% 0 mm 0 W/m2
06:24 16.4 °C 11.3 °C 998.9 hPa SSW 4.8 km/h 6.4 km/h 72% 0 mm 0 W/m2
06:30 16.3 °C 11.5 °C 998.9 hPa SW 3.2 km/h 6.4 km/h 73% 0 mm 0 W/m2
06:35 16.3 °C 11.4 °C 998.9 hPa South 3.2 km/h 8 km/h 73% 0 mm 0 W/m2
06:42 16.3 °C 11.4 °C 998.9 hPa South 1.6 km/h 4.8 km/h 73% 0 mm 0 W/m2
06:48 16.1 °C 11.3 °C 998.9 hPa Calm   4.8 km/h 73% 0 mm 0 W/m2
06:54 16.1 °C 11.2 °C 998.9 hPa Calm     73% 0 mm 0 W/m2
06:59 15.9 °C 11.3 °C 998.9 hPa Calm     74% 0 mm 7 W/m2
07:06 15.7 °C 11.1 °C 998.9 hPa Calm     74% 0 mm 11 W/m2
07:12 15.4 °C 11.1 °C 998.9 hPa Calm     75% 0 mm 9 W/m2
07:18 15.3 °C 10.9 °C 998.9 hPa Calm     75% 0 mm 14 W/m2
07:24 14.7 °C 10.7 °C 998.9 hPa Calm     77% 0 mm 25 W/m2
07:29 14.4 °C 10.7 °C 998.9 hPa Calm     78% 0 mm 40 W/m2
07:35 14.3 °C 10.9 °C 998.9 hPa Calm     80% 0 mm 28 W/m2
07:42 14.2 °C 10.8 °C 998.5 hPa Calm     80% 0 mm 19 W/m2
07:48 14.2 °C 11 °C 998.5 hPa Calm     81% 0 mm 19 W/m2
07:54 14.2 °C 11 °C 998.5 hPa Calm     81% 0 mm 49 W/m2
07:59 14.3 °C 11.1 °C 998.5 hPa Calm     81% 0 mm 90 W/m2
08:05 14.4 °C 11.3 °C 998.2 hPa Calm     82% 0 mm 135 W/m2
08:12 15.2 °C 12 °C 998.2 hPa Calm     81% 0 mm 111 W/m2
08:18 16.2 °C 12.1 °C 997.9 hPa SSW 1.6 km/h 1.6 km/h 77% 0 mm 109 W/m2
08:24 16.6 °C 12.2 °C 997.9 hPa SSW 1.6 km/h 4.8 km/h 75% 0 mm 183 W/m2
08:30 17.1 °C 12.2 °C 997.9 hPa South 1.6 km/h 1.6 km/h 73% 0 mm 153 W/m2
08:35 17.4 °C 12.3 °C 997.9 hPa South 3.2 km/h 4.8 km/h 72% 0 mm 98 W/m2
08:42 17.5 °C 12.4 °C 997.5 hPa SSE 3.2 km/h 9.7 km/h 72% 0 mm 76 W/m2
08:48 17.6 °C 12.2 °C 997.5 hPa SSE 3.2 km/h 9.7 km/h 71% 0 mm 76 W/m2
08:54 17.7 °C 12.1 °C 997.2 hPa South 4.8 km/h 14.5 km/h 70% 0 mm 60 W/m2
08:59 17.8 °C 12.2 °C 997.2 hPa South 6.4 km/h 6.4 km/h 70% 0 mm 69 W/m2
09:05 17.9 °C 12.3 °C 997.2 hPa SSW 6.4 km/h 11.3 km/h 70% 0 mm 83 W/m2
09:12 17.9 °C 12.2 °C 997.2 hPa South 4.8 km/h 6.4 km/h 69% 0 mm 49 W/m2
09:18 18 °C 12.2 °C 996.8 hPa SSE 6.4 km/h 11.3 km/h 69% 0 mm 74 W/m2
09:24 18.2 °C 12.2 °C 996.8 hPa SSE 8 km/h 14.5 km/h 68% 0 mm 86 W/m2
09:30 18.3 °C 12.3 °C 996.8 hPa SSW 8 km/h 20.9 km/h 68% 0 mm 174 W/m2
09:35 18.4 °C 12.2 °C 996.5 hPa SSE 9.7 km/h 20.9 km/h 67% 0 mm 134 W/m2
09:42 18.4 °C 12.2 °C 996.5 hPa South 8 km/h 9.7 km/h 67% 0 mm 93 W/m2
09:48 18.4 °C 12.2 °C 996.5 hPa SSE 9.7 km/h 9.7 km/h 67% 0 mm 46 W/m2
09:53 18.2 °C 12.2 °C 996.5 hPa SSE 9.7 km/h 16.1 km/h 68% 0 mm 44 W/m2
09:59 18.1 °C 12.3 °C 996.2 hPa SSW 8 km/h 8 km/h 69% 0 mm 60 W/m2
10:06 18.2 °C 12.4 °C 996.2 hPa South 8 km/h 16.1 km/h 69% 0 mm 62 W/m2
10:12 18.2 °C 12.2 °C 996.2 hPa SSE 9.7 km/h 12.9 km/h 68% 0 mm 121 W/m2
10:18 18.3 °C 12.6 °C 995.8 hPa SSE 9.7 km/h 19.3 km/h 69% 0 mm 146 W/m2
10:23 18.4 °C 12.4 °C 995.8 hPa SSE 11.3 km/h 17.7 km/h 68% 0 mm 58 W/m2
10:29 18.3 °C 12.3 °C 995.8 hPa South 12.9 km/h 12.9 km/h 68% 0 mm 65 W/m2
10:36 18.4 °C 12.4 °C 995.8 hPa SSE 14.5 km/h 16.1 km/h 68% 0 mm 46 W/m2
10:42 18.3 °C 12.3 °C 995.5 hPa SE 12.9 km/h 20.9 km/h 68% 0 mm 135 W/m2
10:58 18.6 °C 12.1 °C 995.5 hPa SSE 12.9 km/h 17.7 km/h 66% 0 mm 107 W/m2
11:14 18.8 °C 12.1 °C 995.1 hPa South 12.9 km/h 12.9 km/h 65% 0 mm 100 W/m2
11:19 18.8 °C 12.1 °C 994.5 hPa SSE 11.3 km/h 17.7 km/h 65% 0 mm 151 W/m2
11:25 18.8 °C 12.1 °C 994.5 hPa South 14.5 km/h 14.5 km/h 65% 0 mm 49 W/m2
11:32 18.7 °C 12 °C 994.1 hPa SSE 14.5 km/h 14.5 km/h 65% 0 mm 56 W/m2
11:38 18.8 °C 11.8 °C 993.8 hPa SSW 16.1 km/h 32.2 km/h 64% 0 mm 144 W/m2
11:43 18.9 °C 11.9 °C 993.8 hPa SSW 16.1 km/h 16.1 km/h 64% 0 mm 137 W/m2
11:49 18.8 °C 12.1 °C 993.5 hPa SSE 16.1 km/h 16.1 km/h 65% 0 mm 54 W/m2
11:55 18.6 °C 12.1 °C 993.5 hPa SSE 14.5 km/h 14.5 km/h 66% 0 mm 32 W/m2
12:02 18.6 °C 12.1 °C 993.8 hPa East 12.9 km/h 27.4 km/h 66% 0 mm 23 W/m2
12:08 18.4 °C 11.9 °C 993.8 hPa SW 16.1 km/h 27.4 km/h 66% 0 mm 16 W/m2
12:13 17.7 °C 12.6 °C 994.1 hPa SSW 11.3 km/h 20.9 km/h 72% 10.92 mm 32 W/m2
12:18 16.7 °C 12.6 °C 994.1 hPa SSE 14.5 km/h 20.9 km/h 77% 2.54 mm 32 W/m2
12:23 16.2 °C 12.4 °C 994.5 hPa South 16.1 km/h 19.3 km/h 78% 1.78 mm 26 W/m2
12:29 15.9 °C 12.2 °C 994.5 hPa South 16.1 km/h 22.5 km/h 79% 1.78 mm 16 W/m2
12:35 15.6 °C 12.1 °C 994.5 hPa SSW 14.5 km/h 22.5 km/h 80% 1.27 mm 25 W/m2
12:42 15.4 °C 11.8 °C 994.5 hPa SSW 11.3 km/h 12.9 km/h 79% 1.27 mm 47 W/m2
12:48 15.2 °C 11.6 °C 994.5 hPa WSW 9.7 km/h 16.1 km/h 79% 1.02 mm 39 W/m2
12:53 14.9 °C 11.3 °C 995.1 hPa WSW 9.7 km/h 11.3 km/h 79% 6.1 mm 23 W/m2
12:59 11.9 °C 7.6 °C 995.8 hPa WNW 9.7 km/h 9.7 km/h 75% 8.38 mm 14 W/m2
13:05 9.6 °C 6.6 °C 996.5 hPa NW 9.7 km/h 9.7 km/h 82% 7.37 mm 18 W/m2
13:11 8.7 °C 6.4 °C 995.8 hPa NW 8 km/h 19.3 km/h 86% 7.11 mm 44 W/m2
13:18 8.3 °C 6.3 °C 995.8 hPa WNW 8 km/h 19.3 km/h 87% 2.29 mm 121 W/m2
13:23 7.8 °C 5.6 °C 995.8 hPa WNW 8 km/h 12.9 km/h 86% 2.29 mm 171 W/m2
13:29 7.6 °C 5.4 °C 996.8 hPa WNW 9.7 km/h 9.7 km/h 86% 1.27 mm 26 W/m2
13:35 7.3 °C 5.3 °C 996.8 hPa WNW 8 km/h 17.7 km/h 87% 1.02 mm 23 W/m2
13:42 6.8 °C 4.6 °C 996.8 hPa NW 9.7 km/h 9.7 km/h 86% 3.05 mm 21 W/m2
13:48 6.3 °C 4.1 °C 996.8 hPa NW 9.7 km/h 11.3 km/h 86% 3.81 mm 21 W/m2
13:53 5.9 °C 3.8 °C 996.5 hPa NW 8 km/h 9.7 km/h 86% 3.56 mm 19 W/m2
13:59 5.8 °C 3.8 °C 997.2 hPa WNW 6.4 km/h 6.4 km/h 87% 1.78 mm 18 W/m2
14:05 5.8 °C 3.8 °C 997.5 hPa WNW 6.4 km/h 9.7 km/h 87% 1.78 mm 25 W/m2
14:12 5.7 °C 3.7 °C 997.9 hPa West 6.4 km/h 9.7 km/h 87% 1.52 mm 14 W/m2
14:18 5.6 °C 3.4 °C 997.9 hPa WNW 8 km/h 9.7 km/h 86% 2.29 mm 28 W/m2
14:23 5.4 °C 3.3 °C 997.9 hPa West 8 km/h 11.3 km/h 86% 2.03 mm 35 W/m2
14:29 5.4 °C 3.2 °C 998.2 hPa WNW 6.4 km/h 6.4 km/h 86% 2.03 mm 26 W/m2
14:35 5.3 °C 3.1 °C 998.2 hPa WNW 6.4 km/h 9.7 km/h 86% 1.27 mm 37 W/m2
14:42 5.2 °C 3.2 °C 998.5 hPa WNW 6.4 km/h 6.4 km/h 87% 1.02 mm 28 W/m2
14:48 5.1 °C 3.3 °C 998.2 hPa NW 4.8 km/h 6.4 km/h 88% 1.02 mm 25 W/m2
14:53 5.1 °C 3.2 °C 998.5 hPa WNW 4.8 km/h 9.7 km/h 88% 1.78 mm 26 W/m2
14:59 5.1 °C 3.4 °C 998.5 hPa WNW 3.2 km/h 3.2 km/h 89% 1.27 mm 32 W/m2
15:05 5.1 °C 3.4 °C 998.9 hPa WNW 1.6 km/h 6.4 km/h 89% 1.02 mm 25 W/m2
15:12 5.1 °C 3.4 °C 998.9 hPa West 4.8 km/h 16.1 km/h 89% 1.02 mm 26 W/m2
15:18 5.1 °C 3.4 °C 998.9 hPa West 6.4 km/h 16.1 km/h 89% 1.02 mm 21 W/m2
15:23 5.1 °C 3.4 °C 998.9 hPa WNW 4.8 km/h 6.4 km/h 89% 1.02 mm 23 W/m2
15:29 4.9 °C 3.3 °C 999.2 hPa WNW 3.2 km/h 3.2 km/h 89% 1.02 mm 25 W/m2
15:35 4.8 °C 3.2 °C 999.2 hPa WNW 4.8 km/h 9.7 km/h 89% 1.02 mm 21 W/m2
15:42 4.6 °C 2.7 °C 999.5 hPa WNW 8 km/h 9.7 km/h 88% 2.03 mm 28 W/m2
15:48 4.4 °C 2.4 °C 999.5 hPa WNW 8 km/h 9.7 km/h 87% 1.27 mm 18 W/m2
15:53 4.2 °C 2.2 °C 999.9 hPa NW 6.4 km/h 8 km/h 87% 1.27 mm 26 W/m2
15:59 4 °C 2.1 °C 1000.6 hPa West 6.4 km/h 6.4 km/h 87% 2.29 mm 12 W/m2
16:05 3.8 °C 1.7 °C 1000.6 hPa WNW 6.4 km/h 11.3 km/h 86% 1.78 mm 14 W/m2
16:12 3.8 °C 1.7 °C 1000.9 hPa West 6.4 km/h 8 km/h 86% 1.78 mm 9 W/m2
16:18 3.7 °C 1.7 °C 999.9 hPa West 3.2 km/h 8 km/h 87% 1.78 mm 11 W/m2
16:23 3.6 °C 1.7 °C 999.5 hPa West 3.2 km/h 3.2 km/h 87% 1.78 mm 21 W/m2
16:29 3.6 °C 1.8 °C 999.5 hPa WNW 3.2 km/h 6.4 km/h 88% 3.05 mm 9 W/m2
16:35 3.4 °C 1.7 °C 999.2 hPa NW 4.8 km/h 6.4 km/h 88% 4.57 mm 9 W/m2
16:42 3.3 °C 1.6 °C 999.5 hPa West 3.2 km/h 6.4 km/h 88% 1.78 mm 18 W/m2
16:48 3.3 °C 1.5 °C 999.2 hPa WNW 3.2 km/h 6.4 km/h 88% 1.78 mm 16 W/m2
16:53 3.3 °C 1.5 °C 999.5 hPa West 3.2 km/h 4.8 km/h 88% 1.27 mm 14 W/m2
16:59 3.3 °C 1.6 °C 999.9 hPa WSW 1.6 km/h 6.4 km/h 89% 0 mm 5 W/m2
17:05 3.3 °C 1.7 °C 1000.2 hPa SW 3.2 km/h 6.4 km/h 89% 0 mm 7 W/m2
17:12 3.3 °C 1.6 °C 999.9 hPa WSW 1.6 km/h 3.2 km/h 89% 0 mm 7 W/m2
17:18 3.2 °C 1.6 °C 999.5 hPa West 1.6 km/h 3.2 km/h 89% 0 mm 5 W/m2
17:23 3.2 °C 1.6 °C 1000.6 hPa SSW 1.6 km/h 4.8 km/h 89% 1.52 mm 0 W/m2
17:29 3.2 °C 1.6 °C 1000.6 hPa South 3.2 km/h 3.2 km/h 89% 2.29 mm 0 W/m2
17:35 3.2 °C 1.6 °C 1000.9 hPa South 3.2 km/h 6.4 km/h 89% 2.29 mm 0 W/m2
17:41 3.2 °C 1.7 °C 1000.9 hPa SW 3.2 km/h 6.4 km/h 90% 1.27 mm 0 W/m2
17:48 3.3 °C 1.7 °C 1001.2 hPa SW 4.8 km/h 6.4 km/h 89% 0 mm 0 W/m2
17:53 3.6 °C 1.6 °C 1000.9 hPa WSW 6.4 km/h 16.1 km/h 87% 0 mm 0 W/m2
17:59 3.8 °C 1.2 °C 1001.2 hPa WNW 9.7 km/h 9.7 km/h 83% 0 mm 0 W/m2
18:05 3.8 °C 0.8 °C 1001.6 hPa SW 9.7 km/h 16.1 km/h 81% 0 mm 0 W/m2
18:12 3.7 °C 0.8 °C 1001.9 hPa West 8 km/h 9.7 km/h 81% 1.02 mm 0 W/m2
18:18 3.6 °C 0.6 °C 1002.3 hPa WNW 6.4 km/h 9.7 km/h 81% 1.02 mm 0 W/m2
18:23 3.5 °C 0.7 °C 1002.3 hPa West 6.4 km/h 8 km/h 82% 1.02 mm 0 W/m2
18:29 3.4 °C 0.6 °C 1002.3 hPa WSW 3.2 km/h 3.2 km/h 82% 0 mm 0 W/m2
18:35 3.4 °C 0.8 °C 1001.9 hPa WSW 1.6 km/h 4.8 km/h 83% 0 mm 0 W/m2
18:41 3.3 °C 0.7 °C 1001.9 hPa WSW 1.6 km/h 1.6 km/h 83% 0 mm 0 W/m2
18:48 3.3 °C 0.7 °C 1002.3 hPa WSW 1.6 km/h 1.6 km/h 83% 0 mm 0 W/m2
18:53 3.4 °C 0.6 °C 1002.3 hPa SSW 3.2 km/h 6.4 km/h 82% 0 mm 0 W/m2
18:59 3.4 °C 0.6 °C 1002.3 hPa SSW 1.6 km/h 1.6 km/h 82% 0 mm 0 W/m2
19:05 3.4 °C 0.6 °C 1002.6 hPa Calm   1.6 km/h 82% 0 mm 0 W/m2
19:12 3.4 °C 0.8 °C 1002.6 hPa SW 1.6 km/h 3.2 km/h 83% 0 mm 0 W/m2
19:18 3.4 °C 0.6 °C 1003.3 hPa SW 1.6 km/h 3.2 km/h 82% 0 mm 0 W/m2
19:23 3.4 °C 0.7 °C 1002.9 hPa West 1.6 km/h 4.8 km/h 82% 0 mm 0 W/m2
19:29 3.6 °C 0.5 °C 1002.6 hPa West 3.2 km/h 3.2 km/h 80% 0 mm 0 W/m2
19:35 3.7 °C 0.2 °C 1002.6 hPa West 3.2 km/h 8 km/h 78% 0 mm 0 W/m2
19:42 3.8 °C 0.3 °C 1002.6 hPa WNW 3.2 km/h 6.4 km/h 78% 0 mm 0 W/m2
19:48 3.8 °C 0.3 °C 1002.9 hPa NW 4.8 km/h 9.7 km/h 78% 0 mm 0 W/m2
19:53 3.8 °C 0.3 °C 1002.9 hPa WNW 6.4 km/h 9.7 km/h 78% 0 mm 0 W/m2
19:59 3.7 °C 0.3 °C 1003.3 hPa WNW 8 km/h 8 km/h 79% 0 mm 0 W/m2
20:05 3.5 °C 0 °C 1003.3 hPa NW 6.4 km/h 12.9 km/h 78% 0 mm 0 W/m2
20:12 3.2 °C -0.5 °C 1003.3 hPa North 9.7 km/h 11.3 km/h 77% 0 mm 0 W/m2
20:18 2.9 °C -0.5 °C 1003.3 hPa West 8 km/h 12.9 km/h 78% 0 mm 0 W/m2
20:23 2.8 °C -0.4 °C 1003.3 hPa NW 6.4 km/h 8 km/h 79% 0 mm 0 W/m2
20:29 2.7 °C -0.4 °C 1003.3 hPa WNW 4.8 km/h 6.4 km/h 80% 0 mm 0 W/m2
20:35 2.6 °C -0.6 °C 1003.3 hPa WNW 6.4 km/h 8 km/h 80% 0 mm 0 W/m2
20:39 2.4 °C -0.7 °C 1003.6 hPa WNW 6.4 km/h 6.4 km/h 80% 0 mm 0 W/m2
20:45 2.4 °C -0.6 °C 1003.9 hPa WNW 6.4 km/h 6.4 km/h 81% 0 mm 0 W/m2
20:52 2.3 °C -0.7 °C 1003.9 hPa WNW 6.4 km/h 9.7 km/h 81% 0 mm 0 W/m2
20:58 2.2 °C -0.6 °C 1003.9 hPa WNW 6.4 km/h 11.3 km/h 82% 0 mm 0 W/m2
21:03 2.2 °C -0.4 °C 1003.9 hPa NNW 4.8 km/h 6.4 km/h 83% 0 mm 0 W/m2
21:09 2.1 °C -0.4 °C 1004.3 hPa West 3.2 km/h 3.2 km/h 84% 0 mm 0 W/m2
21:15 2 °C -0.4 °C 1004.3 hPa WNW 3.2 km/h 6.4 km/h 84% 0 mm 0 W/m2
21:22 1.9 °C -0.3 °C 1004.3 hPa West 4.8 km/h 6.4 km/h 85% 0 mm 0 W/m2
21:28 1.9 °C -0.3 °C 1004.3 hPa WNW 4.8 km/h 6.4 km/h 85% 0 mm 0 W/m2
21:33 1.9 °C -0.3 °C 1004.3 hPa WNW 4.8 km/h 4.8 km/h 85% 0 mm 0 W/m2
21:39 1.9 °C -0.4 °C 1004.3 hPa WNW 3.2 km/h 3.2 km/h 85% 0 mm 0 W/m2
21:45 1.9 °C -0.4 °C 1004.6 hPa WNW 3.2 km/h 3.2 km/h 85% 0 mm 0 W/m2
21:51 1.9 °C -0.6 °C 1004.6 hPa WSW 3.2 km/h 6.4 km/h 84% 0 mm 0 W/m2
21:58 2 °C -1.8 °C 1004.6 hPa West 4.8 km/h 11.3 km/h 76% 0 mm 0 W/m2
22:03 2.2 °C -3.6 °C 1004.6 hPa West 9.7 km/h 11.3 km/h 66% 0 mm 0 W/m2
22:09 2.1 °C -4 °C 1005 hPa WNW 9.7 km/h 9.7 km/h 64% 0 mm 0 W/m2
22:15 1.9 °C -3.9 °C 1004.6 hPa WNW 8 km/h 9.7 km/h 65% 0 mm 0 W/m2
22:22 1.9 °C -4.4 °C 1005 hPa West 8 km/h 14.5 km/h 63% 0 mm 0 W/m2
22:28 1.9 °C -4.6 °C 1005 hPa WNW 8 km/h 14.5 km/h 62% 0 mm 0 W/m2
22:33 1.9 °C -4.6 °C 1005 hPa West 8 km/h 16.1 km/h 62% 0 mm 0 W/m2
22:39 1.8 °C -4.4 °C 1005 hPa SW 6.4 km/h 14.5 km/h 63% 0 mm 0 W/m2
22:45 1.8 °C -4.7 °C 1005 hPa WNW 9.7 km/h 17.7 km/h 62% 0 mm 0 W/m2
22:51 1.7 °C -4.6 °C 1005 hPa West 11.3 km/h 11.3 km/h 63% 0 mm 0 W/m2
22:58 1.7 °C -4.4 °C 1005 hPa WNW 9.7 km/h 11.3 km/h 64% 0 mm 0 W/m2
23:03 1.6 °C -4.7 °C 1005.3 hPa WNW 8 km/h 11.3 km/h 63% 0 mm 0 W/m2
23:09 1.6 °C -4.3 °C 1005.3 hPa West 8 km/h 11.3 km/h 65% 0 mm 0 W/m2
23:15 1.3 °C -3.4 °C 1005.6 hPa WNW 8 km/h 11.3 km/h 71% 0 mm 0 W/m2
23:21 0.9 °C -3.4 °C 1005.6 hPa West 9.7 km/h 11.3 km/h 73% 0 mm 0 W/m2
23:28 0.7 °C -3.4 °C 1005.6 hPa WNW 9.7 km/h 11.3 km/h 74% 0 mm 0 W/m2
23:33 0.6 °C -3.4 °C 1005.6 hPa WSW 8 km/h 16.1 km/h 75% 0 mm 0 W/m2
23:39 0.6 °C -3.4 °C 1005.6 hPa WNW 6.4 km/h 6.4 km/h 75% 0 mm 0 W/m2
23:45 0.5 °C -3.4 °C 1005.6 hPa West 4.8 km/h 12.9 km/h 75% 0 mm 0 W/m2
23:51 0.4 °C -3.5 °C 1005.6 hPa WNW 6.4 km/h 6.4 km/h 75% 0 mm 0 W/m2
23:58 0.4 °C -3.7 °C 1005.6 hPa WNW 8 km/h 11.3 km/h 74% 0 mm 0 W/m2
Country Meadow, Clay, NY, USA
Compliments of Weather Underground - 2 mb